Currently 73°F in Pinon Hills, California, USA
73°F
73°F / 67°F
4 mph SW
0.00"
Sunday, September 15, 2019 1:00 AM PDT

Pinon Hills, California Weather Summary
Last 36 Hours

Temperature Winds Hourly Humidity Dewpoint
Time Report Norm Report Norm Max Gusts Precip. Rpt. Norm Rpt. Norm Pressure
1,2Sun 01:00 AM  73.4°F  65°F  4 mph SW  2 mph  10 mph  0.00"  22%  40%  31°F  39°F  29.98"
3Sun 12:14 AM  67.0°F  66°F  3 mph SW  2 mph  2 mph  ----  31%  39%  34°F  39°F  29.98"
Sun 12:00 AM  67.7°F  66°F  2 mph SW  2 mph  4 mph  0.00"  30%  39%  34°F  39°F  29.99"
Sat 11:00 PM  73.8°F  67°F  calm  2 mph  8 mph  0.00"  23%  39%  32°F  40°F  29.98"
Sat 10:00 PM  77.0°F  68°F  3 mph SW  2 mph  10 mph  0.00"  19%  37%  29°F  40°F  29.98"
Sat 09:00 PM  77.6°F  70°F  4 mph SW  2 mph  9 mph  0.00"  22%  35%  35°F  40°F  29.97"
Sat 08:00 PM  76.0°F  72°F  3 mph SW  3 mph  7 mph  0.00"  22%  32%  33°F  39°F  29.96"
Sat 07:00 PM  81.9°F  76°F  4 mph SW  3 mph  11 mph  0.00"  19%  28%  33°F  39°F  29.95"
Sat 06:00 PM  88.7°F  80°F  4 mph SE  4 mph  9 mph  0.00"  11%  22%  24°F  37°F  29.95"
Sat 05:00 PM  89.8°F  82°F  calm  5 mph  17 mph  0.00"  9%  20%  20°F  36°F  29.95"
Sat 04:00 PM  90.8°F  83°F  4 mph W  5 mph  11 mph  0.00"  8%  19%  19°F  36°F  29.96"
Sat 03:00 PM  89.8°F  84°F  1 mph W  5 mph  12 mph  0.00"  9%  19%  20°F  35°F  29.98"
Sat 02:00 PM  90.2°F  83°F  4 mph E  4 mph  11 mph  0.00"  9%  20%  22°F  36°F  30.00"
Sat 01:00 PM  88.9°F  83°F  2 mph SE  4 mph  12 mph  0.00"  10%  21%  24°F  37°F  30.03"
Sat 12:00 PM  87.1°F  81°F  5 mph E  3 mph  11 mph  0.00"  11%  23%  25°F  38°F  30.05"
Sat 11:00 AM  85.7°F  79°F  4 mph SE  3 mph  9 mph  0.00"  12%  26%  25°F  40°F  30.06"
Sat 10:00 AM  82.8°F  76°F  calm  3 mph  6 mph  0.00"  13%  29%  24°F  41°F  30.07"
Sat 09:00 AM  80.4°F  74°F  1 mph E  2 mph  9 mph  0.00"  14%  32%  24°F  41°F  30.06"
Sat 08:00 AM  76.7°F  69°F  calm  1 mph  9 mph  0.00"  16%  38%  25°F  42°F  30.06"
Sat 07:00 AM  69.8°F  63°F  4 mph SW  1 mph  9 mph  0.00"  16%  43%  20°F  40°F  30.05"
Sat 06:00 AM  68.9°F  63°F  4 mph SW  2 mph  7 mph  0.00"  16%  43%  19°F  39°F  30.04"
Sat 05:00 AM  68.1°F  63°F  3 mph SW  2 mph  8 mph  0.00"  16%  43%  18°F  39°F  30.04"
Sat 04:00 AM  68.2°F  63°F  4 mph SW  2 mph  8 mph  0.00"  15%  42%  17°F  39°F  30.03"
Sat 03:00 AM  68.9°F  64°F  5 mph SW  2 mph  9 mph  0.00"  17%  41%  20°F  39°F  30.03"
Sat 02:00 AM  67.8°F  65°F  4 mph SW  2 mph  9 mph  0.00"  19%  40%  22°F  39°F  30.05"
Sat 01:00 AM  69.4°F  65°F  4 mph SW  2 mph  9 mph  0.00"  17%  40%  21°F  39°F  30.05"
Sat 12:00 AM  70.3°F  66°F  5 mph SW  2 mph  9 mph  0.00"  16%  39%  21°F  40°F  30.05"
Fri 11:00 PM  71.0°F  67°F  4 mph SW  2 mph  9 mph  0.00"  15%  39%  20°F  40°F  30.05"
Fri 10:00 PM  73.2°F  68°F  6 mph SW  2 mph  10 mph  0.00"  14%  37%  19°F  40°F  30.04"
Fri 09:00 PM  72.5°F  70°F  6 mph SW  2 mph  10 mph  0.00"  14%  35%  19°F  40°F  30.03"
Fri 08:00 PM  75.1°F  72°F  5 mph SW  3 mph  9 mph  0.00"  13%  32%  19°F  40°F  30.02"
Fri 07:00 PM  78.8°F  76°F  5 mph SW  3 mph  7 mph  0.00"  11%  28%  19°F  39°F  30.00"
Fri 06:00 PM  85.7°F  80°F  4 mph E  4 mph  8 mph  0.00"  8%  23%  14°F  38°F  30.00"
Fri 05:00 PM  86.6°F  82°F  calm  5 mph  11 mph  0.00"  7%  21%  13°F  37°F  30.01"
Fri 04:00 PM  87.9°F  84°F  1 mph SW  5 mph  11 mph  0.00"  8%  20%  16°F  37°F  30.01"
Fri 03:00 PM  88.1°F  84°F  1 mph E  5 mph  10 mph  0.00"  8%  20%  17°F  36°F  30.03"
Fri 02:00 PM  85.5°F  83°F  1 mph SE  4 mph  12 mph  0.00"  9%  21%  19°F  37°F  30.05"

  1. Current weather data. No green row appears if the current weather data is also the high or low for the current day.
  2. High temperature for the current day.
  3. Low temperature for the current day.

The Pinon Hills, California weather pages are a service of WeatherCurrents.
Copyright ©2019  WeatherCurrents. All rights reserved. - Submit questions and comments - Privacy Policy

This page automatically refreshes every 10 minutes.